createdAt,value
2023-04-15T00:04:57.661Z,17.80
2023-04-15T00:10:00.452Z,21.40
2023-04-15T00:15:04.278Z,18.60
2023-04-15T00:20:08.178Z,18.70
2023-04-15T00:25:11.738Z,13.90
2023-04-15T00:30:14.737Z,21.50
2023-04-15T00:40:24.719Z,14.10
2023-04-15T00:45:28.328Z,20.20
2023-04-15T00:50:31.162Z,19.90
2023-04-15T00:55:34.705Z,19.90
2023-04-15T01:00:37.689Z,17.00
2023-04-15T01:05:40.487Z,19.40
2023-04-15T01:10:44.112Z,18.80
2023-04-15T01:15:47.436Z,19.10
2023-04-15T01:20:50.171Z,18.80
2023-04-15T01:25:53.928Z,20.10
2023-04-15T01:31:14.620Z,18.30
2023-04-15T01:36:17.461Z,19.90
2023-04-15T01:41:28.257Z,15.40
2023-04-15T01:46:31.631Z,21.50
2023-04-15T01:51:34.493Z,22.20
2023-04-15T01:56:37.582Z,20.00
2023-04-15T02:06:44.247Z,16.80
2023-04-15T02:16:49.835Z,20.30
2023-04-15T02:21:52.720Z,20.80
2023-04-15T02:26:56.140Z,18.50
2023-04-15T02:31:59.182Z,20.20
2023-04-15T02:37:03.997Z,16.50
2023-04-15T02:42:07.422Z,18.70
2023-04-15T02:47:11.757Z,18.90
2023-04-15T02:52:14.473Z,16.10
2023-04-15T02:57:17.242Z,19.00
2023-04-15T03:02:20.076Z,18.40
2023-04-15T03:07:23.039Z,16.80
2023-04-15T03:12:26.157Z,21.50
2023-04-15T03:22:32.671Z,15.50
2023-04-15T03:27:35.477Z,19.40
2023-04-15T03:32:38.549Z,13.80
2023-04-15T03:37:41.487Z,16.90
2023-04-15T03:42:44.136Z,15.30
2023-04-15T03:47:47.535Z,15.20
2023-04-15T03:52:51.324Z,14.80
2023-04-15T03:57:54.329Z,13.20
2023-04-15T04:02:57.353Z,14.30
2023-04-15T04:08:00.952Z,17.60
2023-04-15T04:13:03.657Z,15.40
2023-04-15T04:18:06.676Z,15.20
2023-04-15T04:23:09.564Z,14.70
2023-04-15T04:28:12.591Z,14.70
2023-04-15T04:33:15.580Z,13.50
2023-04-15T04:38:18.271Z,15.60
2023-04-15T04:43:21.277Z,16.90
2023-04-15T04:48:24.183Z,13.60
2023-04-15T04:53:28.147Z,14.70
2023-04-15T04:58:31.029Z,18.20
2023-04-15T05:03:33.813Z,15.30
2023-04-15T05:13:44.012Z,17.40
2023-04-15T05:18:46.838Z,16.60
2023-04-15T05:23:49.773Z,16.50
2023-04-15T05:28:52.430Z,18.00
2023-04-15T05:33:55.423Z,17.60
2023-04-15T05:38:58.240Z,19.00
2023-04-15T05:44:02.076Z,17.30
2023-04-15T05:49:04.867Z,16.80
2023-04-15T05:54:08.080Z,22.70
2023-04-15T05:59:11.191Z,20.80
2023-04-15T06:04:14.021Z,21.40
2023-04-15T06:09:17.177Z,19.20
2023-04-15T06:19:22.690Z,17.80
2023-04-15T06:24:28.081Z,16.70
2023-04-15T06:29:30.786Z,18.60
2023-04-15T06:34:35.111Z,25.40
2023-04-15T06:39:38.434Z,14.60
2023-04-15T06:44:41.339Z,15.00
2023-04-15T06:54:47.724Z,16.50
2023-04-15T06:59:51.659Z,15.90
2023-04-15T07:04:54.559Z,15.40
2023-04-15T07:09:57.340Z,13.50
2023-04-15T07:15:00.062Z,19.60
2023-04-15T07:20:05.000Z,15.20
2023-04-15T07:25:09.153Z,16.70
2023-04-15T07:30:13.964Z,16.50
2023-04-15T07:35:16.693Z,19.80
2023-04-15T07:40:19.904Z,17.80
2023-04-15T07:45:22.894Z,18.00
2023-04-15T07:55:30.756Z,18.10
2023-04-15T08:00:33.588Z,18.40
2023-04-15T08:05:36.342Z,18.60
2023-04-15T08:10:39.050Z,19.40
2023-04-15T08:15:42.213Z,18.90
2023-04-15T08:20:44.957Z,16.60
2023-04-15T08:25:47.649Z,18.60
2023-04-15T08:30:53.016Z,16.60
2023-04-15T08:35:55.891Z,20.30
2023-04-15T08:41:03.772Z,16.20
2023-04-15T08:46:07.671Z,17.80
2023-04-15T08:51:11.111Z,14.10
2023-04-15T08:56:15.826Z,19.70
2023-04-15T09:01:18.921Z,17.40
2023-04-15T09:06:23.176Z,16.20
2023-04-15T09:11:26.108Z,28.20
2023-04-15T09:16:28.895Z,20.00
2023-04-15T09:21:32.205Z,18.10
2023-04-15T09:26:37.176Z,19.70
2023-04-15T09:31:40.810Z,17.90
2023-04-15T09:36:46.810Z,17.50
2023-04-15T09:42:11.056Z,15.10
2023-04-15T09:47:32.907Z,17.50
2023-04-15T09:52:43.076Z,16.90
2023-04-15T09:57:47.578Z,17.50
2023-04-15T10:02:52.139Z,14.00
2023-04-15T10:07:55.305Z,16.40
2023-04-15T10:18:02.002Z,15.60
2023-04-15T10:23:06.398Z,17.90
2023-04-15T10:28:11.195Z,15.00
2023-04-15T10:33:17.279Z,16.20
2023-04-15T10:38:40.439Z,15.00
2023-04-15T10:48:52.720Z,14.70
2023-04-15T10:54:02.265Z,17.10
2023-04-15T10:59:05.913Z,25.20
2023-04-15T11:04:08.785Z,14.80
2023-04-15T11:09:32.264Z,18.50
2023-04-15T11:14:39.816Z,18.90
2023-04-15T11:19:43.689Z,15.70
2023-04-15T11:24:50.638Z,20.00
2023-04-15T11:29:53.405Z,14.10
2023-04-15T11:34:56.163Z,17.20
2023-04-15T11:39:59.119Z,17.40
2023-04-15T11:50:22.639Z,15.60
2023-04-15T11:55:26.275Z,13.80
2023-04-15T12:00:29.335Z,14.90
2023-04-15T12:10:35.218Z,14.60
2023-04-15T12:15:39.316Z,17.50
2023-04-15T12:20:45.704Z,15.30
2023-04-15T12:25:52.784Z,20.40
2023-04-15T12:30:55.837Z,14.00
2023-04-15T12:41:01.283Z,12.80
2023-04-15T12:46:04.996Z,10.50
2023-04-15T12:51:08.112Z,12.10
2023-04-15T13:01:13.640Z,10.50
2023-04-15T13:06:17.025Z,16.30
2023-04-15T13:11:20.674Z,14.10
2023-04-15T13:16:26.634Z,11.40
2023-04-15T13:21:29.875Z,12.10
2023-04-15T13:26:32.958Z,11.20
2023-04-15T13:36:38.977Z,10.70
2023-04-15T13:41:41.775Z,10.80
2023-04-15T13:46:44.490Z,13.50
2023-04-15T13:51:47.206Z,9.30
2023-04-15T13:56:50.059Z,13.70
2023-04-15T14:01:53.206Z,9.40
2023-04-15T14:06:56.478Z,8.60
2023-04-15T14:12:00.224Z,7.80
2023-04-15T14:17:04.750Z,9.30
2023-04-15T14:22:07.557Z,8.10
2023-04-15T14:27:12.169Z,10.20
2023-04-15T14:32:16.158Z,15.40
2023-04-15T14:37:20.157Z,11.40
2023-04-15T14:42:22.864Z,14.50
2023-04-15T14:47:25.932Z,10.10
2023-04-15T14:52:28.804Z,11.90
2023-04-15T14:57:31.487Z,15.00
2023-04-15T15:02:39.682Z,8.60
2023-04-15T15:07:42.810Z,11.10
2023-04-15T15:12:45.566Z,9.50
2023-04-15T15:17:48.443Z,7.20
2023-04-15T15:22:51.525Z,6.80
2023-04-15T15:32:57.007Z,7.30
2023-04-15T15:38:01.527Z,9.90
2023-04-15T15:43:04.869Z,8.40
2023-04-15T15:48:07.779Z,9.40
2023-04-15T15:53:12.516Z,8.10
2023-04-15T15:58:15.637Z,6.50
2023-04-15T16:08:21.536Z,6.90
2023-04-15T16:13:24.239Z,7.10
2023-04-15T16:18:27.118Z,10.20
2023-04-15T16:23:31.242Z,9.00
2023-04-15T16:28:34.145Z,6.70
2023-04-15T16:33:37.107Z,7.00
2023-04-15T16:38:40.061Z,7.20
2023-04-15T16:48:45.686Z,9.30
2023-04-15T16:53:49.303Z,7.60
2023-04-15T16:58:52.629Z,6.20
2023-04-15T17:03:56.365Z,6.30
2023-04-15T17:08:59.650Z,8.10
2023-04-15T17:14:03.160Z,7.00
2023-04-15T17:19:06.553Z,8.30
2023-04-15T17:24:09.438Z,9.20
2023-04-15T17:29:12.495Z,8.20
2023-04-15T17:34:16.215Z,9.80
2023-04-15T17:39:19.337Z,9.80
2023-04-15T17:44:23.517Z,9.50
2023-04-15T17:49:28.435Z,10.00
2023-04-15T17:54:31.220Z,16.60
2023-04-15T17:59:34.198Z,7.00
2023-04-15T18:04:37.026Z,8.20
2023-04-15T18:09:39.979Z,9.20
2023-04-15T18:14:42.822Z,5.50
2023-04-15T18:19:46.540Z,5.50
2023-04-15T18:24:52.109Z,7.40
2023-04-15T18:29:54.920Z,7.60
2023-04-15T18:34:57.720Z,5.70
2023-04-15T18:40:00.619Z,9.00
2023-04-15T18:45:03.840Z,4.80
2023-04-15T18:50:08.192Z,5.30
2023-04-15T18:55:10.984Z,5.70
2023-04-15T19:00:15.923Z,4.90
2023-04-15T19:05:18.782Z,4.30
2023-04-15T19:10:21.936Z,5.10
2023-04-15T19:20:27.441Z,6.30
2023-04-15T19:25:31.324Z,6.50
2023-04-15T19:30:34.182Z,6.80
2023-04-15T19:35:38.420Z,4.50
2023-04-15T19:40:41.134Z,8.10
2023-04-15T19:45:46.854Z,9.00
2023-04-15T19:50:50.147Z,6.50
2023-04-15T20:00:55.643Z,7.50
2023-04-15T20:05:58.691Z,5.70
2023-04-15T20:11:01.821Z,8.10
2023-04-15T20:21:08.894Z,8.50
2023-04-15T20:26:11.606Z,10.00
2023-04-15T20:31:14.438Z,7.50
2023-04-15T20:36:17.343Z,7.00
2023-04-15T20:41:21.669Z,12.60
2023-04-15T20:46:26.562Z,8.50
2023-04-15T20:51:37.343Z,9.40
2023-04-15T20:56:40.332Z,7.10
2023-04-15T21:01:43.578Z,6.80
2023-04-15T21:06:47.669Z,7.70
2023-04-15T21:16:57.646Z,6.70
2023-04-15T21:22:00.671Z,6.60
2023-04-15T21:27:03.400Z,7.40
2023-04-15T21:32:06.686Z,7.30
2023-04-15T21:37:09.446Z,7.80
2023-04-15T21:42:12.222Z,6.50
2023-04-15T21:47:15.020Z,7.20
2023-04-15T21:52:17.877Z,10.20
2023-04-15T21:57:20.689Z,8.80
2023-04-15T22:02:23.563Z,7.50
2023-04-15T22:07:26.590Z,9.00
2023-04-15T22:12:29.291Z,7.80
2023-04-15T22:17:32.013Z,7.70
2023-04-15T22:22:44.411Z,11.10
2023-04-15T22:27:47.628Z,6.00
2023-04-15T22:32:50.460Z,8.00
2023-04-15T22:37:53.334Z,12.70
2023-04-15T22:42:56.325Z,8.70
2023-04-15T22:47:59.006Z,8.70
2023-04-15T22:53:01.914Z,7.40
2023-04-15T22:58:04.737Z,8.50
2023-04-15T23:03:08.007Z,8.70
2023-04-15T23:08:10.953Z,7.60
2023-04-15T23:13:13.659Z,9.20
2023-04-15T23:18:16.458Z,10.20
2023-04-15T23:23:19.378Z,6.90
2023-04-15T23:28:22.140Z,7.90
2023-04-15T23:33:24.861Z,8.80
2023-04-15T23:38:27.531Z,8.30
2023-04-15T23:43:30.464Z,7.00
2023-04-15T23:48:33.370Z,6.90
2023-04-15T23:53:36.386Z,9.40
2023-04-15T23:58:39.112Z,6.30
